Terminal Aerodrome Forecast
Issued by NWS New Orleans/Baton Rouge, LA

Home | Current Version | Previous Version | Text Only | Print | Product List | Glossary On
Versions: 1 2 3 4 5 6 7 8 9 10 11 12 13 14 15 16 17 18 19
000
FTUS44 KLIX 182100 AAA
TAFBTR
TAF AMD
KBTR 182132Z 1822/1918 02005KT P6SM VCSH BKN028 OVC250
     FM190200 00000KT P6SM VCTS BKN025CB
     FM190800 00000KT P6SM BKN100
     FM191200 VRB04KT P6SM SCT110=

USA.gov is the U.S. government's official web portal to all federal, state and local government web resources and services.